createdAt,value
2022-11-26T00:00:44.222Z,120.73
2022-11-26T00:03:12.133Z,113.33
2022-11-26T00:05:40.300Z,121.83
2022-11-26T00:08:15.851Z,135.87
2022-11-26T00:10:44.094Z,134.90
2022-11-26T00:13:16.892Z,131.77
2022-11-26T00:15:46.405Z,139.07
2022-11-26T00:18:14.977Z,129.03
2022-11-26T00:20:44.129Z,139.03
2022-11-26T00:23:17.492Z,128.60
2022-11-26T00:25:46.869Z,139.77
2022-11-26T00:28:29.318Z,128.90
2022-11-26T00:30:59.820Z,122.37
2022-11-26T00:33:28.040Z,128.33
2022-11-26T00:35:57.501Z,156.53
2022-11-26T00:38:26.526Z,134.33
2022-11-26T00:40:54.201Z,118.70
2022-11-26T00:43:21.903Z,128.03
2022-11-26T00:45:50.537Z,140.97
2022-11-26T00:48:20.115Z,132.27
2022-11-26T00:50:49.745Z,155.63
2022-11-26T00:53:18.899Z,140.10
2022-11-26T00:55:48.105Z,142.30
2022-11-26T00:58:22.209Z,122.63
2022-11-26T01:00:50.359Z,114.30
2022-11-26T01:03:18.011Z,128.67
2022-11-26T01:05:49.796Z,133.50
2022-11-26T01:08:22.414Z,118.87
2022-11-26T01:10:50.591Z,134.67
2022-11-26T01:13:18.871Z,134.70
2022-11-26T01:15:46.777Z,136.13
2022-11-26T01:18:16.289Z,152.20
2022-11-26T01:20:44.952Z,133.80
2022-11-26T01:23:15.702Z,124.00
2022-11-26T01:25:43.869Z,130.43
2022-11-26T01:28:12.071Z,125.10
2022-11-26T01:30:40.106Z,133.23
2022-11-26T01:33:08.587Z,136.70
2022-11-26T01:35:36.203Z,135.03
2022-11-26T01:38:04.361Z,134.33
2022-11-26T01:40:53.209Z,134.97
2022-11-26T01:43:25.547Z,124.77
2022-11-26T01:45:53.861Z,139.77
2022-11-26T01:48:25.808Z,137.30
2022-11-26T01:50:58.489Z,158.70
2022-11-26T01:53:29.930Z,131.90
2022-11-26T01:56:00.200Z,138.73
2022-11-26T01:58:31.834Z,134.63
2022-11-26T02:01:01.609Z,166.83
2022-11-26T02:03:30.247Z,160.37
2022-11-26T02:06:00.107Z,167.80
2022-11-26T02:08:29.255Z,172.97
2022-11-26T02:10:56.853Z,164.07
2022-11-26T02:13:25.411Z,180.77
2022-11-26T02:15:59.822Z,165.23
2022-11-26T02:22:16.118Z,200.43
2022-11-26T02:24:49.385Z,228.77
2022-11-26T02:27:41.153Z,188.17
2022-11-26T02:30:12.164Z,202.53
2022-11-26T02:32:54.461Z,172.30
2022-11-26T02:35:24.796Z,214.43
2022-11-26T02:37:54.279Z,203.53
2022-11-26T02:40:22.466Z,168.90
2022-11-26T02:42:50.272Z,175.47
2022-11-26T02:45:21.420Z,181.73
2022-11-26T02:47:51.224Z,181.33
2022-11-26T02:50:21.354Z,227.13
2022-11-26T02:52:50.286Z,229.27
2022-11-26T02:55:19.224Z,206.53
2022-11-26T02:57:49.082Z,198.83
2022-11-26T03:00:17.326Z,209.20
2022-11-26T03:02:48.002Z,232.30
2022-11-26T03:05:17.499Z,219.93
2022-11-26T03:07:46.225Z,203.50
2022-11-26T03:10:14.662Z,254.03
2022-11-26T03:12:42.486Z,236.07
2022-11-26T03:15:10.915Z,192.07
2022-11-26T03:17:39.099Z,223.20
2022-11-26T03:20:10.296Z,210.77
2022-11-26T03:22:37.969Z,231.57
2022-11-26T03:25:06.646Z,224.97
2022-11-26T03:27:34.332Z,236.63
2022-11-26T03:30:01.975Z,239.17
2022-11-26T03:32:30.148Z,242.97
2022-11-26T03:34:58.461Z,226.00
2022-11-26T03:37:27.545Z,231.57
2022-11-26T03:39:55.326Z,256.43
2022-11-26T03:42:23.226Z,218.33
2022-11-26T03:44:51.022Z,247.27
2022-11-26T03:47:18.854Z,257.50
2022-11-26T03:49:46.456Z,235.27
2022-11-26T03:52:14.149Z,214.80
2022-11-26T03:54:43.148Z,254.27
2022-11-26T03:57:11.367Z,257.53
2022-11-26T03:59:39.025Z,237.13
2022-11-26T04:02:06.967Z,265.87
2022-11-26T04:04:35.233Z,236.10
2022-11-26T04:07:03.037Z,237.90
2022-11-26T04:09:30.826Z,245.90
2022-11-26T04:12:00.430Z,245.43
2022-11-26T04:14:28.160Z,279.93
2022-11-26T04:16:56.025Z,271.70
2022-11-26T04:19:23.942Z,263.97
2022-11-26T04:21:51.613Z,227.83
2022-11-26T04:24:19.303Z,229.40
2022-11-26T04:26:47.380Z,269.97
2022-11-26T04:29:16.544Z,239.03
2022-11-26T04:31:44.226Z,263.83
2022-11-26T04:34:12.186Z,237.87
2022-11-26T04:36:40.345Z,256.40
2022-11-26T04:39:07.908Z,268.83
2022-11-26T04:41:35.937Z,250.80
2022-11-26T04:44:03.741Z,221.87
2022-11-26T04:50:45.134Z,213.47
2022-11-26T04:53:12.972Z,220.97
2022-11-26T04:55:40.540Z,265.90
2022-11-26T04:58:08.539Z,223.40
2022-11-26T05:00:36.173Z,208.57
2022-11-26T05:03:04.223Z,216.20
2022-11-26T05:05:32.169Z,230.70
2022-11-26T05:08:02.842Z,205.17
2022-11-26T05:10:30.441Z,216.97
2022-11-26T05:13:00.874Z,196.03
2022-11-26T05:15:28.510Z,203.77
2022-11-26T05:17:56.303Z,190.23
2022-11-26T05:20:24.293Z,166.23
2022-11-26T05:22:51.906Z,161.83
2022-11-26T05:25:21.250Z,177.30
2022-11-26T05:27:49.060Z,179.20
2022-11-26T05:30:17.163Z,158.57
2022-11-26T05:32:44.876Z,164.97
2022-11-26T05:35:14.376Z,155.50
2022-11-26T05:37:46.609Z,157.67
2022-11-26T05:40:14.825Z,143.30
2022-11-26T05:42:45.374Z,165.53
2022-11-26T05:45:16.865Z,140.20
2022-11-26T05:47:44.582Z,136.83
2022-11-26T05:50:12.494Z,135.00
2022-11-26T05:52:40.778Z,120.53
2022-11-26T05:55:09.214Z,114.40
2022-11-26T05:57:38.057Z,133.73
2022-11-26T06:00:08.227Z,171.93
2022-11-26T06:02:39.431Z,128.33
2022-11-26T06:05:08.282Z,136.90
2022-11-26T06:07:39.328Z,108.80
2022-11-26T06:10:10.825Z,116.93
2022-11-26T06:12:38.428Z,121.13
2022-11-26T06:15:08.535Z,122.33
2022-11-26T06:17:37.918Z,118.73
2022-11-26T06:20:06.475Z,111.73
2022-11-26T06:22:36.847Z,100.37
2022-11-26T06:25:04.861Z,122.40
2022-11-26T06:27:33.697Z,106.10
2022-11-26T06:30:01.470Z,108.20
2022-11-26T06:32:31.536Z,100.10
2022-11-26T06:34:59.338Z,111.43
2022-11-26T06:37:26.981Z,115.17
2022-11-26T06:39:55.143Z,114.53
2022-11-26T06:42:22.740Z,112.33
2022-11-26T06:44:50.640Z,106.27
2022-11-26T06:47:18.674Z,116.27
2022-11-26T06:49:47.698Z,122.13
2022-11-26T06:52:15.506Z,104.97
2022-11-26T06:54:43.366Z,104.93
2022-11-26T06:57:10.930Z,102.50
2022-11-26T06:59:38.727Z,117.33
2022-11-26T07:02:06.549Z,120.60
2022-11-26T07:08:26.219Z,107.30
2022-11-26T07:10:53.882Z,95.67
2022-11-26T07:13:21.515Z,97.57
2022-11-26T07:15:49.431Z,94.70
2022-11-26T07:18:17.723Z,92.53
2022-11-26T07:20:45.353Z,98.37
2022-11-26T07:23:12.997Z,102.33
2022-11-26T07:25:42.070Z,101.57
2022-11-26T07:28:09.659Z,101.33
2022-11-26T07:30:37.858Z,103.40
2022-11-26T07:33:05.558Z,107.83
2022-11-26T07:35:33.989Z,107.73
2022-11-26T07:38:01.721Z,101.70
2022-11-26T07:40:29.485Z,96.63
2022-11-26T07:43:00.086Z,96.73
2022-11-26T07:45:28.046Z,93.30
2022-11-26T07:47:55.644Z,97.93
2022-11-26T07:50:23.294Z,81.00
2022-11-26T07:52:52.663Z,89.47
2022-11-26T07:55:20.324Z,81.87
2022-11-26T07:57:48.330Z,84.47
2022-11-26T08:00:18.726Z,77.43
2022-11-26T08:02:46.433Z,87.07
2022-11-26T08:05:14.351Z,75.40
2022-11-26T08:07:42.309Z,82.53
2022-11-26T08:10:10.525Z,82.27
2022-11-26T08:12:38.362Z,82.77
2022-11-26T08:15:06.208Z,70.90
2022-11-26T08:17:35.546Z,83.23
2022-11-26T08:20:03.530Z,71.00
2022-11-26T08:22:31.197Z,76.67
2022-11-26T08:24:59.037Z,85.93
2022-11-26T08:27:26.637Z,66.17
2022-11-26T08:29:54.547Z,60.33
2022-11-26T08:32:22.359Z,67.00
2022-11-26T08:34:51.657Z,59.80
2022-11-26T08:37:19.652Z,65.87
2022-11-26T08:39:47.320Z,76.57
2022-11-26T08:42:15.389Z,72.07
2022-11-26T08:44:42.997Z,62.30
2022-11-26T08:47:10.840Z,68.30
2022-11-26T08:49:38.444Z,67.43
2022-11-26T08:52:07.601Z,72.47
2022-11-26T08:54:35.462Z,64.17
2022-11-26T08:57:03.445Z,61.77
2022-11-26T08:59:31.090Z,49.90
2022-11-26T09:01:59.057Z,44.90
2022-11-26T09:04:26.833Z,49.00
2022-11-26T09:06:54.621Z,53.23
2022-11-26T09:09:23.732Z,49.27
2022-11-26T09:11:53.941Z,57.47
2022-11-26T09:14:23.176Z,60.23
2022-11-26T09:16:51.131Z,52.10
2022-11-26T09:19:19.215Z,49.90
2022-11-26T09:21:47.527Z,48.83
2022-11-26T09:24:16.361Z,43.87
2022-11-26T09:26:45.326Z,44.73
2022-11-26T09:29:13.960Z,39.00
2022-11-26T09:32:00.696Z,45.57
2022-11-26T09:34:29.380Z,36.53
2022-11-26T09:36:57.021Z,47.50
2022-11-26T09:39:24.866Z,40.80
2022-11-26T09:41:57.261Z,41.43
2022-11-26T09:44:28.484Z,45.50
2022-11-26T09:47:15.627Z,45.30
2022-11-26T09:49:52.886Z,45.80
2022-11-26T09:52:22.322Z,39.40
2022-11-26T09:54:52.612Z,41.00
2022-11-26T09:57:24.325Z,51.53
2022-11-26T09:59:53.528Z,40.60
2022-11-26T10:02:21.192Z,31.27
2022-11-26T10:04:49.847Z,35.60
2022-11-26T10:07:30.845Z,36.90
2022-11-26T10:10:04.029Z,32.17
2022-11-26T10:12:56.542Z,35.47
2022-11-26T10:15:30.438Z,49.80
2022-11-26T10:18:00.675Z,32.40
2022-11-26T10:20:43.419Z,29.90
2022-11-26T10:23:18.178Z,41.60
2022-11-26T10:25:47.880Z,36.93
2022-11-26T10:28:21.388Z,35.47
2022-11-26T10:30:52.656Z,32.67
2022-11-26T10:33:21.457Z,37.57
2022-11-26T10:35:50.010Z,34.33
2022-11-26T10:38:18.462Z,30.33
2022-11-26T10:40:46.401Z,31.10
2022-11-26T10:43:17.175Z,32.53
2022-11-26T10:45:47.075Z,34.60
2022-11-26T10:48:21.381Z,30.97
2022-11-26T10:51:00.322Z,28.50
2022-11-26T10:53:29.284Z,31.90
2022-11-26T10:55:58.906Z,36.27
2022-11-26T10:58:28.263Z,36.30
2022-11-26T11:00:58.807Z,37.60
2022-11-26T11:03:59.730Z,40.17
2022-11-26T11:06:28.108Z,47.97
2022-11-26T11:08:55.762Z,32.77
2022-11-26T11:11:25.447Z,37.00
2022-11-26T11:13:53.770Z,46.53
2022-11-26T11:16:26.414Z,41.03
2022-11-26T11:18:56.299Z,49.13
2022-11-26T11:21:25.573Z,42.47
2022-11-26T11:24:08.241Z,41.13
2022-11-26T11:26:41.006Z,38.93
2022-11-26T11:33:24.335Z,35.43
2022-11-26T11:36:13.134Z,36.47
2022-11-26T11:38:47.505Z,28.90
2022-11-26T11:41:19.885Z,32.27
2022-11-26T11:43:48.179Z,28.90
2022-11-26T11:46:27.580Z,28.70
2022-11-26T11:49:00.269Z,31.70
2022-11-26T11:51:33.677Z,26.30
2022-11-26T11:54:05.858Z,36.83
2022-11-26T11:56:37.648Z,40.63
2022-11-26T11:59:37.466Z,46.00
2022-11-26T12:02:19.374Z,49.67
2022-11-26T12:04:58.551Z,37.93
2022-11-26T12:07:37.985Z,48.93
2022-11-26T12:10:17.379Z,31.50
2022-11-26T12:12:47.972Z,40.07
2022-11-26T12:15:22.917Z,41.27
2022-11-26T12:17:53.957Z,41.30
2022-11-26T12:20:26.870Z,36.77
2022-11-26T12:22:58.955Z,29.73
2022-11-26T12:25:35.047Z,35.27
2022-11-26T12:28:06.502Z,38.83
2022-11-26T12:30:40.313Z,36.70
2022-11-26T12:33:11.937Z,31.87
2022-11-26T12:35:43.044Z,39.33
2022-11-26T12:38:14.899Z,54.53
2022-11-26T12:40:44.241Z,46.50
2022-11-26T12:43:15.099Z,36.13
2022-11-26T12:45:45.682Z,36.97
2022-11-26T12:48:19.854Z,40.63
2022-11-26T12:50:51.891Z,35.60
2022-11-26T12:53:24.446Z,38.97
2022-11-26T12:55:55.265Z,43.00
2022-11-26T12:58:26.134Z,39.17
2022-11-26T13:00:55.528Z,45.07
2022-11-26T13:03:28.040Z,40.47
2022-11-26T13:08:56.125Z,27.70
2022-11-26T13:11:28.978Z,24.57
2022-11-26T13:13:59.673Z,32.23
2022-11-26T13:16:35.025Z,31.07
2022-11-26T13:19:07.063Z,32.13
2022-11-26T13:21:43.114Z,37.33
2022-11-26T13:24:21.140Z,25.47
2022-11-26T13:26:57.929Z,37.83
2022-11-26T13:29:45.460Z,29.63
2022-11-26T13:32:33.864Z,28.53
2022-11-26T13:35:06.238Z,38.47
2022-11-26T13:37:41.835Z,27.83
2022-11-26T13:40:30.204Z,30.33
2022-11-26T13:43:04.874Z,27.37
2022-11-26T13:45:55.807Z,26.80
2022-11-26T13:48:27.990Z,34.23
2022-11-26T13:50:59.923Z,25.87
2022-11-26T13:53:32.175Z,25.30
2022-11-26T13:56:02.681Z,31.43
2022-11-26T13:58:36.091Z,29.27
2022-11-26T14:01:25.484Z,24.50
2022-11-26T14:03:53.580Z,28.37
2022-11-26T14:06:21.687Z,28.07
2022-11-26T14:08:52.000Z,33.57
2022-11-26T14:11:38.590Z,24.97
2022-11-26T14:14:27.705Z,30.13
2022-11-26T14:17:10.214Z,30.47
2022-11-26T14:19:55.796Z,27.80
2022-11-26T14:22:30.771Z,33.90
2022-11-26T14:25:02.079Z,35.07
2022-11-26T14:27:31.640Z,24.73
2022-11-26T14:30:00.647Z,25.13
2022-11-26T14:32:31.614Z,35.20
2022-11-26T14:34:59.645Z,49.73
2022-11-26T14:37:28.361Z,33.53
2022-11-26T14:40:01.028Z,36.07
2022-11-26T14:42:30.610Z,37.60
2022-11-26T14:45:02.435Z,43.43
2022-11-26T14:47:31.454Z,31.07
2022-11-26T14:50:00.811Z,40.87
2022-11-26T14:52:33.322Z,34.63
2022-11-26T14:55:04.829Z,42.23
2022-11-26T14:57:36.994Z,35.10
2022-11-26T15:00:06.420Z,30.70
2022-11-26T15:02:40.213Z,33.40
2022-11-26T15:05:14.717Z,45.43
2022-11-26T15:07:42.935Z,43.87
2022-11-26T15:10:20.091Z,47.87
2022-11-26T15:12:49.065Z,53.17
2022-11-26T15:15:17.640Z,41.33
2022-11-26T15:17:48.038Z,34.20
2022-11-26T15:20:17.818Z,51.50
2022-11-26T15:22:49.605Z,55.33
2022-11-26T15:25:20.548Z,58.40
2022-11-26T15:27:55.392Z,39.70
2022-11-26T15:30:24.819Z,49.00
2022-11-26T15:32:57.568Z,50.53
2022-11-26T15:35:26.835Z,43.47
2022-11-26T15:37:54.477Z,58.53
2022-11-26T15:40:24.850Z,48.20
2022-11-26T15:42:54.916Z,57.60
2022-11-26T15:45:24.212Z,59.70
2022-11-26T15:47:53.735Z,51.97
2022-11-26T15:50:30.010Z,55.60
2022-11-26T15:52:59.391Z,52.30
2022-11-26T15:55:30.662Z,32.20
2022-11-26T15:58:00.202Z,37.13
2022-11-26T16:00:31.378Z,45.27
2022-11-26T16:02:59.411Z,45.30
2022-11-26T16:05:30.361Z,48.83
2022-11-26T16:07:59.695Z,37.70
2022-11-26T16:10:31.130Z,44.83
2022-11-26T16:13:17.656Z,37.30
2022-11-26T16:15:47.754Z,33.50
2022-11-26T16:18:16.984Z,32.37
2022-11-26T16:20:45.066Z,39.37
2022-11-26T16:23:20.582Z,44.13
2022-11-26T16:26:03.069Z,36.03
2022-11-26T16:28:32.503Z,37.13
2022-11-26T16:31:00.422Z,36.60
2022-11-26T16:33:28.602Z,35.03
2022-11-26T16:35:57.003Z,43.60
2022-11-26T16:38:26.699Z,43.10
2022-11-26T16:40:54.765Z,42.00
2022-11-26T16:43:22.899Z,32.03
2022-11-26T16:45:54.943Z,42.93
2022-11-26T16:48:24.228Z,39.93
2022-11-26T16:50:52.276Z,31.17
2022-11-26T16:53:20.173Z,41.70
2022-11-26T16:55:49.792Z,45.63
2022-11-26T16:58:23.617Z,42.83
2022-11-26T17:00:53.068Z,37.67
2022-11-26T17:03:22.549Z,43.47
2022-11-26T17:05:51.424Z,35.50
2022-11-26T17:08:19.489Z,38.40
2022-11-26T17:10:47.897Z,45.00
2022-11-26T17:13:15.640Z,35.67
2022-11-26T17:15:44.001Z,41.93
2022-11-26T17:18:18.071Z,35.93
2022-11-26T17:20:46.169Z,36.33
2022-11-26T17:23:14.758Z,32.77
2022-11-26T17:25:44.205Z,26.23
2022-11-26T17:28:12.625Z,27.50
2022-11-26T17:30:40.943Z,37.77
2022-11-26T17:33:08.827Z,31.23
2022-11-26T17:35:37.946Z,34.13
2022-11-26T17:38:11.573Z,38.30
2022-11-26T17:40:39.269Z,34.07
2022-11-26T17:43:06.894Z,33.37
2022-11-26T17:45:34.613Z,33.27
2022-11-26T17:48:02.233Z,28.63
2022-11-26T17:50:30.591Z,36.07
2022-11-26T17:52:59.659Z,36.70
2022-11-26T17:55:27.971Z,36.87
2022-11-26T17:57:56.694Z,36.83
2022-11-26T18:00:28.229Z,55.10
2022-11-26T18:02:56.351Z,47.00
2022-11-26T18:05:24.250Z,65.97
2022-11-26T18:07:52.603Z,67.30
2022-11-26T18:10:22.871Z,47.40
2022-11-26T18:12:53.029Z,40.37
2022-11-26T18:15:22.400Z,42.43
2022-11-26T18:17:53.077Z,51.73
2022-11-26T18:20:22.315Z,48.20
2022-11-26T18:22:51.006Z,69.73
2022-11-26T18:25:18.830Z,62.23
2022-11-26T18:27:47.881Z,62.03
2022-11-26T18:30:17.708Z,52.00
2022-11-26T18:32:46.361Z,65.27
2022-11-26T18:35:14.269Z,64.27
2022-11-26T18:37:41.996Z,70.13
2022-11-26T18:40:11.479Z,62.50
2022-11-26T18:42:39.424Z,65.40
2022-11-26T18:45:10.072Z,54.60
2022-11-26T18:47:38.693Z,67.60
2022-11-26T18:50:07.446Z,62.30
2022-11-26T18:52:35.998Z,50.00
2022-11-26T18:55:07.366Z,42.43
2022-11-26T18:57:34.961Z,51.73
2022-11-26T19:00:02.956Z,61.93
2022-11-26T19:02:32.398Z,56.50
2022-11-26T19:05:00.245Z,59.53
2022-11-26T19:07:27.974Z,55.30
2022-11-26T19:09:55.544Z,60.13
2022-11-26T19:12:23.434Z,58.90
2022-11-26T19:14:51.095Z,48.03
2022-11-26T19:17:19.005Z,64.73
2022-11-26T19:19:48.320Z,55.00
2022-11-26T19:22:16.003Z,54.43
2022-11-26T19:24:43.624Z,63.63
2022-11-26T19:27:11.672Z,64.87
2022-11-26T19:29:39.572Z,50.80
2022-11-26T19:32:07.738Z,56.97
2022-11-26T19:34:35.472Z,66.30
2022-11-26T19:37:04.495Z,55.73
2022-11-26T19:39:32.516Z,63.10
2022-11-26T19:42:01.529Z,44.60
2022-11-26T19:44:29.104Z,52.27
2022-11-26T19:46:56.877Z,71.10
2022-11-26T19:49:24.668Z,53.10
2022-11-26T19:51:53.471Z,67.77
2022-11-26T19:54:22.814Z,53.63
2022-11-26T19:56:50.892Z,54.77
2022-11-26T19:59:19.619Z,64.53
2022-11-26T20:01:47.494Z,61.60
2022-11-26T20:04:17.075Z,57.90
2022-11-26T20:06:45.268Z,53.47
2022-11-26T20:09:14.216Z,49.20
2022-11-26T20:11:44.058Z,57.47
2022-11-26T20:14:11.829Z,52.50
2022-11-26T20:16:39.991Z,55.03
2022-11-26T20:19:08.902Z,56.73
2022-11-26T20:21:36.733Z,56.50
2022-11-26T20:24:05.801Z,59.63
2022-11-26T20:26:34.723Z,52.87
2022-11-26T20:29:04.926Z,55.20
2022-11-26T20:31:33.668Z,69.53
2022-11-26T20:34:02.326Z,49.50
2022-11-26T20:36:30.496Z,52.43
2022-11-26T20:38:59.273Z,59.33
2022-11-26T20:41:27.244Z,61.90
2022-11-26T20:43:58.498Z,60.63
2022-11-26T20:46:28.886Z,57.73
2022-11-26T20:48:57.410Z,59.57
2022-11-26T20:51:25.157Z,59.43
2022-11-26T20:53:53.340Z,62.70
2022-11-26T20:56:22.584Z,52.67
2022-11-26T20:58:51.331Z,75.77
2022-11-26T21:01:19.978Z,82.40
2022-11-26T21:03:49.326Z,52.23
2022-11-26T21:06:17.882Z,75.77
2022-11-26T21:08:46.134Z,59.87
2022-11-26T21:11:14.321Z,67.03
2022-11-26T21:13:42.125Z,56.17
2022-11-26T21:16:12.516Z,53.23
2022-11-26T21:18:40.312Z,45.83
2022-11-26T21:21:09.941Z,53.10
2022-11-26T21:23:39.292Z,55.47
2022-11-26T21:26:08.020Z,62.20
2022-11-26T21:28:35.622Z,60.97
2022-11-26T21:31:07.216Z,52.33
2022-11-26T21:33:35.328Z,62.30
2022-11-26T21:36:10.257Z,61.77
2022-11-26T21:38:41.688Z,53.47
2022-11-26T21:41:11.550Z,54.20
2022-11-26T21:43:39.532Z,49.37
2022-11-26T21:46:08.151Z,51.73
2022-11-26T21:48:36.857Z,48.97
2022-11-26T21:51:06.700Z,49.20
2022-11-26T21:53:34.774Z,48.70
2022-11-26T21:56:06.747Z,57.50
2022-11-26T21:58:35.838Z,54.93
2022-11-26T22:01:10.328Z,53.73
2022-11-26T22:03:38.305Z,61.60
2022-11-26T22:06:06.311Z,59.60
2022-11-26T22:08:34.657Z,56.60
2022-11-26T22:11:07.771Z,66.67
2022-11-26T22:13:36.937Z,58.00
2022-11-26T22:16:05.316Z,57.03
2022-11-26T22:18:35.816Z,63.90
2022-11-26T22:21:03.849Z,66.50
2022-11-26T22:23:31.442Z,73.40
2022-11-26T22:25:59.266Z,73.13
2022-11-26T22:28:30.121Z,64.83
2022-11-26T22:30:59.906Z,72.07
2022-11-26T22:33:28.129Z,56.00
2022-11-26T22:35:55.692Z,63.97
2022-11-26T22:38:23.546Z,59.40
2022-11-26T22:40:51.485Z,47.80
2022-11-26T22:43:19.181Z,51.87
2022-11-26T22:45:46.915Z,43.63
2022-11-26T22:48:16.023Z,49.50
2022-11-26T22:50:50.452Z,48.93
2022-11-26T22:53:18.354Z,58.23
2022-11-26T22:55:50.477Z,50.67
2022-11-26T22:58:18.818Z,51.90
2022-11-26T23:00:48.451Z,42.60
2022-11-26T23:03:19.072Z,56.07
2022-11-26T23:05:47.214Z,55.43
2022-11-26T23:08:15.503Z,79.60
2022-11-26T23:10:43.558Z,58.40
2022-11-26T23:13:12.378Z,52.97
2022-11-26T23:15:44.543Z,53.73
2022-11-26T23:18:14.870Z,52.37
2022-11-26T23:20:43.981Z,65.07
2022-11-26T23:23:11.895Z,54.93
2022-11-26T23:25:41.211Z,48.57
2022-11-26T23:28:08.876Z,53.83
2022-11-26T23:30:36.790Z,69.17
2022-11-26T23:33:04.989Z,57.67
2022-11-26T23:35:32.719Z,59.47
2022-11-26T23:38:02.226Z,58.90
2022-11-26T23:40:30.292Z,62.83
2022-11-26T23:42:57.936Z,54.23
2022-11-26T23:45:25.542Z,54.37
2022-11-26T23:47:53.534Z,57.07
2022-11-26T23:50:21.229Z,49.13
2022-11-26T23:52:49.100Z,62.57
2022-11-26T23:55:18.764Z,59.30
2022-11-26T23:57:46.771Z,51.30
